createdAt,value
2022-09-21T00:00:52.001Z,100.00
2022-09-21T00:03:18.546Z,100.00
2022-09-21T00:05:44.913Z,100.00
2022-09-21T00:08:13.774Z,100.00
2022-09-21T00:10:40.480Z,100.00
2022-09-21T00:13:08.743Z,100.00
2022-09-21T00:15:35.145Z,100.00
2022-09-21T00:18:01.740Z,100.00
2022-09-21T00:20:29.001Z,100.00
2022-09-21T00:22:55.338Z,100.00
2022-09-21T00:25:21.663Z,100.00
2022-09-21T00:27:51.212Z,100.00
2022-09-21T00:30:18.165Z,100.00
2022-09-21T00:32:44.530Z,100.00
2022-09-21T00:35:11.082Z,100.00
2022-09-21T00:37:37.431Z,100.00
2022-09-21T00:40:04.782Z,100.00
2022-09-21T00:42:35.227Z,100.00
2022-09-21T00:45:01.912Z,100.00
2022-09-21T00:47:39.450Z,100.00
2022-09-21T00:50:20.237Z,100.00
2022-09-21T00:52:52.294Z,100.00
2022-09-21T00:55:24.474Z,100.00
2022-09-21T00:57:58.844Z,100.00
2022-09-21T01:00:25.402Z,100.00
2022-09-21T01:02:51.944Z,100.00
2022-09-21T01:05:18.746Z,100.00
2022-09-21T01:07:47.096Z,100.00
2022-09-21T01:10:17.474Z,100.00
2022-09-21T01:13:14.338Z,100.00
2022-09-21T01:15:50.503Z,100.00
2022-09-21T01:18:41.716Z,100.00
2022-09-21T01:21:12.636Z,100.00
2022-09-21T01:24:12.515Z,100.00
2022-09-21T01:27:05.487Z,100.00
2022-09-21T01:29:38.299Z,100.00
2022-09-21T01:32:17.966Z,100.00
2022-09-21T01:34:59.257Z,100.00
2022-09-21T01:37:41.840Z,100.00
2022-09-21T01:40:18.381Z,100.00
2022-09-21T01:42:48.086Z,100.00
2022-09-21T01:45:17.823Z,100.00
2022-09-21T01:47:48.300Z,100.00
2022-09-21T01:50:17.022Z,100.00
2022-09-21T01:52:52.380Z,100.00
2022-09-21T01:55:21.559Z,100.00
2022-09-21T01:58:06.199Z,100.00
2022-09-21T02:00:35.354Z,100.00
2022-09-21T02:03:12.711Z,100.00
2022-09-21T02:05:40.202Z,100.00
2022-09-21T02:08:08.005Z,100.00
2022-09-21T02:10:39.283Z,100.00
2022-09-21T02:13:07.976Z,100.00
2022-09-21T02:15:46.094Z,100.00
2022-09-21T02:18:30.976Z,100.00
2022-09-21T02:21:00.013Z,100.00
2022-09-21T02:23:29.767Z,100.00
2022-09-21T02:26:14.455Z,100.00
2022-09-21T02:29:01.384Z,100.00
2022-09-21T02:31:47.108Z,100.00
2022-09-21T02:34:37.680Z,100.00
2022-09-21T02:37:11.675Z,100.00
2022-09-21T02:39:50.314Z,100.00
2022-09-21T02:42:21.168Z,100.00
2022-09-21T02:44:52.791Z,100.00
2022-09-21T02:47:26.093Z,100.00
2022-09-21T02:49:58.545Z,100.00
2022-09-21T02:52:26.295Z,100.00
2022-09-21T02:54:55.090Z,100.00
2022-09-21T02:57:23.447Z,100.00
2022-09-21T02:59:51.191Z,100.00
2022-09-21T03:02:17.664Z,100.00
2022-09-21T03:04:49.957Z,100.00
2022-09-21T03:07:17.526Z,100.00
2022-09-21T03:09:44.196Z,100.00
2022-09-21T03:12:10.609Z,100.00
2022-09-21T03:14:36.900Z,100.00
2022-09-21T03:17:03.541Z,100.00
2022-09-21T03:19:29.860Z,100.00
2022-09-21T03:21:56.790Z,100.00
2022-09-21T03:24:42.926Z,100.00
2022-09-21T03:27:10.679Z,100.00
2022-09-21T03:29:37.074Z,100.00
2022-09-21T03:32:04.080Z,100.00
2022-09-21T03:34:31.279Z,100.00
2022-09-21T03:36:57.563Z,100.00
2022-09-21T03:39:23.874Z,100.00
2022-09-21T03:41:50.532Z,100.00
2022-09-21T03:44:17.541Z,100.00
2022-09-21T03:46:44.407Z,100.00
2022-09-21T03:49:10.683Z,100.00
2022-09-21T03:51:36.974Z,100.00
2022-09-21T03:54:03.368Z,100.00
2022-09-21T03:56:29.678Z,100.00
2022-09-21T03:58:55.974Z,100.00
2022-09-21T04:01:22.549Z,100.00
2022-09-21T04:03:48.867Z,100.00
2022-09-21T04:06:15.253Z,100.00
2022-09-21T04:08:43.699Z,100.00
2022-09-21T04:11:16.355Z,100.00
2022-09-21T04:13:43.493Z,100.00
2022-09-21T04:16:11.005Z,100.00
2022-09-21T04:18:40.510Z,100.00
2022-09-21T04:21:06.856Z,100.00
2022-09-21T04:23:33.163Z,100.00
2022-09-21T04:25:59.895Z,100.00
2022-09-21T04:28:26.257Z,100.00
2022-09-21T04:30:54.180Z,100.00
2022-09-21T04:33:20.517Z,100.00
2022-09-21T04:35:46.829Z,100.00
2022-09-21T04:38:13.561Z,100.00
2022-09-21T04:40:39.922Z,100.00
2022-09-21T04:43:06.233Z,100.00
2022-09-21T04:45:32.604Z,100.00
2022-09-21T04:47:58.947Z,100.00
2022-09-21T04:50:25.465Z,100.00
2022-09-21T04:52:51.737Z,100.00
2022-09-21T04:55:18.095Z,100.00
2022-09-21T04:57:44.456Z,100.00
2022-09-21T05:00:11.273Z,100.00
2022-09-21T05:02:37.594Z,100.00
2022-09-21T05:05:04.220Z,100.00
2022-09-21T05:07:30.507Z,100.00
2022-09-21T05:10:02.906Z,100.00
2022-09-21T05:12:30.645Z,100.00
2022-09-21T05:14:56.973Z,100.00
2022-09-21T05:17:23.355Z,100.00
2022-09-21T05:19:50.498Z,100.00
2022-09-21T05:22:17.316Z,100.00
2022-09-21T05:24:43.615Z,100.00
2022-09-21T05:27:10.040Z,100.00
2022-09-21T05:29:36.603Z,100.00
2022-09-21T05:32:31.926Z,100.00
2022-09-21T05:35:36.444Z,100.00
2022-09-21T05:38:15.873Z,100.00
2022-09-21T05:40:42.443Z,100.00
2022-09-21T05:43:10.587Z,100.00
2022-09-21T05:45:47.575Z,100.00
2022-09-21T05:48:37.279Z,100.00
2022-09-21T05:51:22.926Z,100.00
2022-09-21T05:54:27.711Z,100.00
2022-09-21T05:57:04.631Z,100.00
2022-09-21T05:59:46.893Z,100.00
2022-09-21T06:02:24.960Z,100.00
2022-09-21T06:04:54.188Z,100.00
2022-09-21T06:07:20.481Z,100.00
2022-09-21T06:09:46.791Z,100.00
2022-09-21T06:12:13.115Z,100.00
2022-09-21T06:14:39.396Z,100.00
2022-09-21T06:17:05.700Z,100.00
2022-09-21T06:19:32.165Z,100.00
2022-09-21T06:21:58.446Z,100.00
2022-09-21T06:24:25.298Z,100.00
2022-09-21T06:26:51.731Z,100.00
2022-09-21T06:29:23.257Z,100.00
2022-09-21T06:31:51.201Z,100.00
2022-09-21T06:34:17.975Z,100.00
2022-09-21T06:36:45.557Z,100.00
2022-09-21T06:39:12.383Z,100.00
2022-09-21T06:41:38.739Z,100.00
2022-09-21T06:44:05.390Z,100.00
2022-09-21T06:46:31.776Z,100.00
2022-09-21T06:48:58.228Z,100.00
2022-09-21T06:51:24.583Z,100.00
2022-09-21T06:53:55.162Z,100.00
2022-09-21T06:56:21.514Z,100.00
2022-09-21T06:58:48.040Z,100.00
2022-09-21T07:01:15.774Z,100.00
2022-09-21T07:03:43.246Z,100.00
2022-09-21T07:06:15.529Z,100.00
2022-09-21T07:11:30.310Z,100.00
2022-09-21T07:13:58.283Z,100.00
2022-09-21T07:16:24.606Z,100.00
2022-09-21T07:18:51.025Z,100.00
2022-09-21T07:21:17.392Z,100.00
2022-09-21T07:23:43.781Z,100.00
2022-09-21T07:26:12.951Z,100.00
2022-09-21T07:28:39.702Z,100.00
2022-09-21T07:31:08.756Z,100.00
2022-09-21T07:33:36.273Z,100.00
2022-09-21T07:36:09.870Z,100.00
2022-09-21T07:38:39.130Z,100.00
2022-09-21T07:41:10.000Z,100.00
2022-09-21T07:43:39.138Z,100.00
2022-09-21T07:46:06.488Z,100.00
2022-09-21T07:48:32.866Z,98.85
2022-09-21T07:51:07.295Z,97.63
2022-09-21T07:53:38.731Z,97.76
2022-09-21T07:56:07.664Z,97.66
2022-09-21T07:58:54.279Z,96.68
2022-09-21T08:01:21.325Z,95.33
2022-09-21T08:03:52.155Z,94.94
2022-09-21T08:06:19.298Z,94.69
2022-09-21T08:08:47.870Z,93.10
2022-09-21T08:11:15.624Z,92.47
2022-09-21T08:13:41.932Z,92.00
2022-09-21T08:16:09.219Z,92.11
2022-09-21T08:18:40.275Z,92.33
2022-09-21T08:21:07.880Z,92.10
2022-09-21T08:23:34.446Z,92.22
2022-09-21T08:26:07.676Z,90.64
2022-09-21T08:28:36.152Z,88.81
2022-09-21T08:31:08.603Z,88.03
2022-09-21T08:33:35.195Z,88.07
2022-09-21T08:36:02.341Z,88.08
2022-09-21T08:38:34.050Z,87.22
2022-09-21T08:41:02.627Z,87.12
2022-09-21T08:43:36.871Z,85.05
2022-09-21T08:46:10.714Z,85.23
2022-09-21T08:48:43.487Z,85.18
2022-09-21T08:51:16.073Z,84.77
2022-09-21T08:53:46.398Z,84.27
2022-09-21T08:56:14.626Z,84.29
2022-09-21T08:58:41.634Z,84.04
2022-09-21T09:01:33.873Z,84.75
2022-09-21T09:04:14.163Z,82.59
2022-09-21T09:06:56.131Z,81.67
2022-09-21T09:09:53.604Z,81.16
2022-09-21T09:12:38.209Z,81.32
2022-09-21T09:15:22.802Z,81.93
2022-09-21T09:18:09.022Z,82.50
2022-09-21T09:20:43.430Z,81.62
2022-09-21T09:23:19.488Z,83.39
2022-09-21T09:25:51.597Z,83.58
2022-09-21T09:28:28.902Z,82.58
2022-09-21T09:31:10.688Z,81.69
2022-09-21T09:33:51.565Z,79.37
2022-09-21T09:36:30.089Z,78.67
2022-09-21T09:39:13.355Z,78.11
2022-09-21T09:41:46.640Z,79.02
2022-09-21T09:44:50.549Z,77.54
2022-09-21T09:47:32.187Z,79.68
2022-09-21T09:50:12.769Z,80.20
2022-09-21T09:52:40.513Z,81.21
2022-09-21T09:55:25.682Z,78.79
2022-09-21T09:57:54.731Z,77.06
2022-09-21T10:00:21.838Z,75.90
2022-09-21T10:02:56.784Z,75.56
2022-09-21T10:05:29.207Z,73.47
2022-09-21T10:07:55.541Z,71.78
2022-09-21T10:10:21.981Z,70.77
2022-09-21T10:12:49.655Z,69.07
2022-09-21T10:15:18.236Z,69.74
2022-09-21T10:17:48.507Z,69.62
2022-09-21T10:20:20.195Z,71.54
2022-09-21T10:22:53.119Z,72.73
2022-09-21T10:25:20.347Z,72.52
2022-09-21T10:27:49.602Z,61.81
2022-09-21T10:30:35.097Z,63.06
2022-09-21T10:33:01.853Z,65.39
2022-09-21T10:35:28.618Z,67.15
2022-09-21T10:38:21.306Z,63.87
2022-09-21T10:40:49.179Z,62.03
2022-09-21T10:43:43.637Z,57.81
2022-09-21T10:46:10.818Z,55.90
2022-09-21T10:48:37.811Z,59.74
2022-09-21T10:51:04.587Z,61.44
2022-09-21T10:53:32.267Z,60.15
2022-09-21T10:56:17.399Z,58.59
2022-09-21T10:59:10.966Z,56.98
2022-09-21T11:01:43.826Z,57.07
2022-09-21T11:04:16.749Z,52.17
2022-09-21T11:06:58.675Z,54.37
2022-09-21T11:09:32.498Z,55.97
2022-09-21T11:12:31.300Z,55.64
2022-09-21T11:15:12.751Z,58.08
2022-09-21T11:17:41.810Z,59.62
2022-09-21T11:20:14.489Z,61.81
2022-09-21T11:22:49.232Z,61.37
2022-09-21T11:25:37.498Z,63.39
2022-09-21T11:28:22.073Z,63.63
2022-09-21T11:31:00.217Z,60.95
2022-09-21T11:33:55.986Z,56.11
2022-09-21T11:36:34.309Z,59.96
2022-09-21T11:39:21.561Z,52.93
2022-09-21T11:41:53.924Z,54.66
2022-09-21T11:44:48.588Z,57.02
2022-09-21T11:47:33.719Z,59.00
2022-09-21T11:50:36.886Z,60.00
2022-09-21T11:53:25.539Z,59.93
2022-09-21T11:55:54.760Z,60.95
2022-09-21T11:58:37.232Z,58.10
2022-09-21T12:01:11.959Z,59.37
2022-09-21T12:03:56.041Z,57.60
2022-09-21T12:07:02.741Z,58.04
2022-09-21T12:09:46.840Z,58.90
2022-09-21T12:12:19.523Z,57.57
2022-09-21T12:15:06.521Z,56.29
2022-09-21T12:18:08.055Z,59.88
2022-09-21T12:20:58.537Z,54.77
2022-09-21T12:23:38.250Z,57.07
2022-09-21T12:26:06.219Z,55.90
2022-09-21T12:28:42.921Z,54.67
2022-09-21T12:31:19.934Z,52.54
2022-09-21T12:33:59.628Z,46.96
2022-09-21T12:36:49.905Z,45.89
2022-09-21T12:39:25.270Z,49.18
2022-09-21T12:42:22.636Z,46.52
2022-09-21T12:44:54.980Z,52.27
2022-09-21T12:47:24.611Z,54.37
2022-09-21T12:49:55.426Z,53.09
2022-09-21T12:52:25.485Z,48.74
2022-09-21T12:55:07.586Z,47.24
2022-09-21T13:01:20.734Z,47.97
2022-09-21T13:03:59.980Z,48.31
2022-09-21T13:06:44.615Z,48.59
2022-09-21T13:09:14.885Z,46.09
2022-09-21T13:11:50.236Z,47.15
2022-09-21T13:14:18.155Z,49.31
2022-09-21T13:16:52.850Z,47.56
2022-09-21T13:19:24.959Z,47.76
2022-09-21T13:22:15.871Z,47.54
2022-09-21T13:24:45.339Z,48.24
2022-09-21T13:27:11.966Z,49.00
2022-09-21T13:29:40.547Z,50.13
2022-09-21T13:32:13.736Z,47.97
2022-09-21T13:34:41.348Z,49.15
2022-09-21T13:37:19.782Z,51.39
2022-09-21T13:39:58.071Z,51.01
2022-09-21T13:42:30.195Z,50.18
2022-09-21T13:45:21.140Z,51.17
2022-09-21T13:47:54.466Z,49.78
2022-09-21T13:50:42.580Z,49.78
2022-09-21T13:53:22.955Z,49.28
2022-09-21T13:55:53.700Z,49.36
2022-09-21T13:58:46.295Z,50.62
2022-09-21T14:01:29.482Z,50.38
2022-09-21T14:04:15.120Z,50.70
2022-09-21T14:06:45.227Z,49.22
2022-09-21T14:09:31.479Z,49.87
2022-09-21T14:12:04.366Z,49.90
2022-09-21T14:14:36.729Z,52.68
2022-09-21T14:17:35.015Z,51.88
2022-09-21T14:20:01.425Z,49.77
2022-09-21T14:22:28.028Z,49.02
2022-09-21T14:25:36.201Z,50.64
2022-09-21T14:28:05.676Z,49.97
2022-09-21T14:30:34.957Z,50.12
2022-09-21T14:33:12.006Z,53.02
2022-09-21T14:35:43.044Z,52.54
2022-09-21T14:38:35.403Z,52.47
2022-09-21T14:41:07.309Z,56.12
2022-09-21T14:43:36.788Z,56.25
2022-09-21T14:46:19.695Z,57.08
2022-09-21T14:49:19.549Z,58.12
2022-09-21T14:52:31.170Z,56.76
2022-09-21T14:55:01.759Z,56.16
2022-09-21T14:57:37.467Z,55.42
2022-09-21T15:00:26.461Z,57.92
2022-09-21T15:03:24.501Z,52.53
2022-09-21T15:05:56.724Z,54.95
2022-09-21T15:09:12.870Z,58.85
2022-09-21T15:11:49.083Z,59.70
2022-09-21T15:14:37.164Z,59.76
2022-09-21T15:17:25.685Z,60.09
2022-09-21T15:19:58.119Z,58.16
2022-09-21T15:22:24.804Z,60.53
2022-09-21T15:24:56.386Z,60.37
2022-09-21T15:27:26.552Z,60.98
2022-09-21T15:29:55.614Z,61.62
2022-09-21T15:32:30.349Z,63.47
2022-09-21T15:35:14.976Z,61.84
2022-09-21T15:37:41.637Z,60.68
2022-09-21T15:40:46.457Z,59.83
2022-09-21T15:43:16.794Z,60.24
2022-09-21T15:45:55.753Z,61.18
2022-09-21T15:48:23.502Z,62.20
2022-09-21T15:51:01.509Z,61.78
2022-09-21T15:53:31.811Z,64.56
2022-09-21T15:56:01.395Z,65.88
2022-09-21T15:58:35.539Z,64.30
2022-09-21T16:01:04.373Z,66.25
2022-09-21T16:03:30.948Z,66.16
2022-09-21T16:05:57.538Z,64.89
2022-09-21T16:08:28.422Z,64.91
2022-09-21T16:11:13.074Z,63.14
2022-09-21T16:13:59.046Z,62.38
2022-09-21T16:16:26.703Z,63.88
2022-09-21T16:18:59.920Z,64.53
2022-09-21T16:21:32.338Z,65.35
2022-09-21T16:24:17.818Z,65.19
2022-09-21T16:26:57.164Z,66.21
2022-09-21T16:29:29.318Z,65.43
2022-09-21T16:32:17.313Z,66.32
2022-09-21T16:34:51.675Z,65.89
2022-09-21T16:37:26.500Z,68.12
2022-09-21T16:39:57.855Z,68.62
2022-09-21T16:42:27.743Z,67.15
2022-09-21T16:44:55.096Z,69.54
2022-09-21T16:47:26.830Z,68.69
2022-09-21T16:50:00.171Z,69.62
2022-09-21T16:52:28.504Z,69.38
2022-09-21T16:54:56.456Z,71.40
2022-09-21T16:57:23.912Z,70.19
2022-09-21T16:59:50.377Z,71.28
2022-09-21T17:02:18.370Z,72.24
2022-09-21T17:04:44.885Z,72.43
2022-09-21T17:07:13.138Z,73.37
2022-09-21T17:09:44.153Z,74.43
2022-09-21T17:12:13.599Z,77.72
2022-09-21T17:14:46.403Z,78.88
2022-09-21T17:17:19.911Z,78.63
2022-09-21T17:19:49.671Z,76.97
2022-09-21T17:22:19.587Z,77.40
2022-09-21T17:24:52.380Z,76.07
2022-09-21T17:27:23.815Z,78.96
2022-09-21T17:29:50.905Z,78.90
2022-09-21T17:32:22.570Z,78.96
2022-09-21T17:35:33.775Z,79.07
2022-09-21T17:38:00.357Z,79.73
2022-09-21T17:40:27.299Z,80.64
2022-09-21T17:43:06.276Z,81.19
2022-09-21T17:45:43.057Z,83.13
2022-09-21T17:48:18.018Z,84.15
2022-09-21T17:50:44.559Z,84.22
2022-09-21T17:53:29.758Z,85.35
2022-09-21T17:56:04.447Z,86.04
2022-09-21T17:58:59.948Z,87.32
2022-09-21T18:01:30.327Z,87.82
2022-09-21T18:03:57.445Z,88.16
2022-09-21T18:06:24.344Z,87.25
2022-09-21T18:08:50.943Z,88.46
2022-09-21T18:11:24.668Z,90.24
2022-09-21T18:14:05.988Z,91.44
2022-09-21T18:16:47.945Z,92.38
2022-09-21T18:19:55.031Z,92.99
2022-09-21T18:22:45.606Z,94.63
2022-09-21T18:25:15.971Z,95.61
2022-09-21T18:27:47.928Z,97.00
2022-09-21T18:30:16.660Z,97.19
2022-09-21T18:33:01.604Z,96.80
2022-09-21T18:35:43.715Z,96.48
2022-09-21T18:38:37.182Z,96.38
2022-09-21T18:41:21.321Z,95.60
2022-09-21T18:44:18.635Z,96.01
2022-09-21T18:46:55.926Z,95.28
2022-09-21T18:49:42.238Z,95.55
2022-09-21T18:52:22.026Z,96.17
2022-09-21T18:54:49.634Z,96.12
2022-09-21T18:57:16.511Z,96.71
2022-09-21T18:59:43.430Z,96.50
2022-09-21T19:02:16.301Z,96.30
2022-09-21T19:04:51.270Z,96.14
2022-09-21T19:32:59.403Z,100.00
2022-09-21T19:35:57.543Z,100.00
2022-09-21T19:38:25.014Z,100.00
2022-09-21T19:41:02.413Z,100.00
2022-09-21T19:43:47.440Z,100.00
2022-09-21T19:46:34.125Z,100.00
2022-09-21T19:49:20.120Z,100.00
2022-09-21T19:51:51.514Z,100.00
2022-09-21T19:54:42.598Z,100.00
2022-09-21T19:57:34.240Z,100.00
2022-09-21T20:00:02.161Z,100.00
2022-09-21T20:03:06.099Z,100.00
2022-09-21T23:01:34.398Z,100.00
2022-09-21T23:07:07.912Z,100.00
2022-09-21T23:09:34.420Z,100.00
2022-09-21T23:12:01.348Z,100.00
2022-09-21T23:14:28.013Z,100.00
2022-09-21T23:16:54.693Z,100.00
2022-09-21T23:19:32.285Z,100.00
